createdAt,value
2022-12-27T05:02:26.487Z,100302.16
2022-12-27T05:06:29.123Z,100307.81
2022-12-27T05:10:49.670Z,100309.34
2022-12-27T05:14:52.221Z,100312.72
2022-12-27T05:18:56.166Z,100314.25
2022-12-27T05:23:16.324Z,100305.94
2022-12-27T05:27:19.244Z,100315.13
2022-12-27T05:31:23.131Z,100325.47
2022-12-27T05:35:27.020Z,100322.44
2022-12-27T05:39:29.503Z,100314.50
2022-12-27T05:43:32.824Z,100313.97
2022-12-27T05:47:35.301Z,100315.97
2022-12-27T05:51:39.167Z,100315.84
2022-12-27T05:55:42.053Z,100320.88
2022-12-27T05:59:44.550Z,100326.34
2022-12-27T06:03:47.266Z,100338.41
2022-12-27T06:07:51.774Z,100333.75
2022-12-27T06:11:54.271Z,100341.16
2022-12-27T06:15:59.669Z,100345.44
2022-12-27T06:20:02.270Z,100340.06
2022-12-27T06:24:06.780Z,100350.84
2022-12-27T06:28:09.637Z,100340.72
2022-12-27T06:32:12.319Z,100349.31
2022-12-27T06:36:16.909Z,100349.59
2022-12-27T06:40:21.915Z,100352.94
2022-12-27T06:44:24.449Z,100357.59
2022-12-27T06:48:27.140Z,100357.84
2022-12-27T06:52:30.358Z,100370.69
2022-12-27T06:56:34.249Z,100377.56
2022-12-27T07:00:36.794Z,100383.34
2022-12-27T07:04:39.347Z,100382.06
2022-12-27T07:08:42.031Z,100376.00
2022-12-27T07:12:45.876Z,100381.66
2022-12-27T07:16:50.191Z,100397.53
2022-12-27T07:20:52.741Z,100395.13
2022-12-27T07:24:55.248Z,100394.69
2022-12-27T07:29:01.143Z,100399.75
2022-12-27T07:33:03.636Z,100405.66
2022-12-27T07:37:06.448Z,100419.69
2022-12-27T07:41:09.225Z,100420.94
2022-12-27T07:45:13.079Z,100423.91
2022-12-27T07:49:17.857Z,100438.53
2022-12-27T07:53:20.491Z,100445.03
2022-12-27T07:57:23.004Z,100447.88
2022-12-27T08:01:30.060Z,100441.09
2022-12-27T08:05:32.857Z,100449.28
2022-12-27T08:09:38.596Z,100456.84
2022-12-27T08:13:41.417Z,100467.81
2022-12-27T08:17:45.308Z,100470.91
2022-12-27T08:21:47.842Z,100464.44
2022-12-27T08:25:50.683Z,100463.16
2022-12-27T08:29:53.239Z,100481.72
2022-12-27T08:34:00.367Z,100484.28
2022-12-27T08:38:03.170Z,100492.13
2022-12-27T08:42:05.851Z,100494.09
2022-12-27T08:46:09.561Z,100499.31
2022-12-27T08:50:13.508Z,100509.56
2022-12-27T08:54:17.354Z,100515.75
2022-12-27T08:58:19.818Z,100515.03
2022-12-27T09:02:22.423Z,100511.41
2022-12-27T09:06:27.665Z,100517.16
2022-12-27T09:10:30.169Z,100530.81
2022-12-27T09:14:32.809Z,100536.72
2022-12-27T09:18:35.343Z,100539.66
2022-12-27T09:22:39.373Z,100551.88
2022-12-27T09:26:42.386Z,100556.66
2022-12-27T09:30:45.672Z,100551.31
2022-12-27T09:34:48.274Z,100552.44
2022-12-27T09:38:53.487Z,100557.06
2022-12-27T09:43:19.172Z,100562.53
2022-12-27T09:47:27.437Z,100568.69
2022-12-27T09:51:33.861Z,100570.88
2022-12-27T09:55:44.007Z,100553.78
2022-12-27T09:59:50.124Z,100564.34
2022-12-27T10:03:53.350Z,100571.78
2022-12-27T10:08:07.607Z,100569.81
2022-12-27T10:12:23.387Z,100574.28
2022-12-27T10:16:33.988Z,100572.72
2022-12-27T10:20:49.071Z,100582.38
2022-12-27T10:24:56.303Z,100570.09
2022-12-27T10:29:04.360Z,100583.59
2022-12-27T10:33:09.720Z,100578.22
2022-12-27T10:37:16.484Z,100572.22
2022-12-27T10:41:30.129Z,100569.63
2022-12-27T10:45:36.888Z,100565.34
2022-12-27T10:49:41.505Z,100554.94
2022-12-27T10:53:58.859Z,100553.78
2022-12-27T10:58:20.558Z,100555.47
2022-12-27T11:02:24.584Z,100566.03
2022-12-27T11:06:27.247Z,100574.31
2022-12-27T11:10:32.211Z,100563.91
2022-12-27T11:14:37.150Z,100567.06
2022-12-27T11:18:46.072Z,100568.94
2022-12-27T11:22:53.317Z,100570.09
2022-12-27T11:26:59.204Z,100579.47
2022-12-27T11:31:04.037Z,100576.63
2022-12-27T11:35:17.315Z,100572.78
2022-12-27T11:39:39.605Z,100575.25
2022-12-27T11:43:49.435Z,100562.28
2022-12-27T11:47:58.519Z,100565.19
2022-12-27T11:52:25.647Z,100566.03
2022-12-27T11:56:29.887Z,100569.22
2022-12-27T12:00:41.502Z,100569.56
2022-12-27T12:05:27.189Z,100562.38
2022-12-27T12:09:44.569Z,100562.09
2022-12-27T12:14:08.821Z,100566.47
2022-12-27T12:18:34.019Z,100575.44
2022-12-27T12:22:49.027Z,100576.56
2022-12-27T12:27:06.760Z,100580.97
2022-12-27T12:31:20.864Z,100576.84
2022-12-27T12:35:32.808Z,100584.78
2022-12-27T12:39:54.415Z,100571.59
2022-12-27T12:44:45.278Z,100573.81
2022-12-27T12:49:22.598Z,100570.53
2022-12-27T12:53:43.167Z,100578.88
2022-12-27T12:57:58.301Z,100577.03
2022-12-27T13:02:25.280Z,100579.38
2022-12-27T13:06:59.208Z,100574.09
2022-12-27T13:11:23.018Z,100572.59
2022-12-27T13:15:32.428Z,100571.03
2022-12-27T13:19:55.269Z,100567.25
2022-12-27T13:24:08.292Z,100557.59
2022-12-27T13:28:29.309Z,100552.25
2022-12-27T13:32:42.900Z,100548.31
2022-12-27T13:37:05.862Z,100548.88
2022-12-27T13:41:29.826Z,100538.69
2022-12-27T13:45:52.717Z,100534.94
2022-12-27T13:50:14.711Z,100534.84
2022-12-27T13:54:48.922Z,100546.34
2022-12-27T13:59:36.645Z,100546.41
2022-12-27T14:04:01.183Z,100548.63
2022-12-27T14:08:12.630Z,100543.06
2022-12-27T14:12:39.591Z,100538.69
2022-12-27T14:16:59.266Z,100536.13
2022-12-27T14:21:17.618Z,100533.44
2022-12-27T14:25:52.909Z,100535.66
2022-12-27T14:30:32.878Z,100530.06
2022-12-27T14:35:03.871Z,100536.06
2022-12-27T14:39:36.247Z,100534.00
2022-12-27T14:44:10.381Z,100535.00
2022-12-27T14:48:42.161Z,100536.69
2022-12-27T14:53:18.760Z,100530.56
2022-12-27T14:57:34.566Z,100530.53
2022-12-27T15:01:49.666Z,100539.72
2022-12-27T15:06:04.579Z,100534.16
2022-12-27T15:10:18.467Z,100528.66
2022-12-27T15:14:38.033Z,100538.00
2022-12-27T15:18:55.337Z,100530.34
2022-12-27T15:23:08.006Z,100523.34
2022-12-27T15:27:21.021Z,100521.53
2022-12-27T15:31:33.212Z,100522.19
2022-12-27T15:35:53.141Z,100525.22
2022-12-27T15:39:57.861Z,100504.53
2022-12-27T15:44:40.650Z,100506.38
2022-12-27T15:49:04.329Z,100503.06
2022-12-27T15:53:39.516Z,100510.56
2022-12-27T15:58:10.129Z,100500.84
2022-12-27T16:02:24.668Z,100492.81
2022-12-27T16:06:51.534Z,100509.16
2022-12-27T16:10:55.103Z,100521.81
2022-12-27T16:15:12.510Z,100520.75
2022-12-27T16:19:40.531Z,100506.56
2022-12-27T16:23:51.960Z,100511.75
2022-12-27T16:27:57.308Z,100512.53
2022-12-27T16:32:20.083Z,100516.75
2022-12-27T16:36:28.505Z,100518.09
2022-12-27T16:40:44.712Z,100514.06
2022-12-27T16:44:57.542Z,100512.75
2022-12-27T16:49:30.387Z,100511.09
2022-12-27T16:53:45.707Z,100513.53
2022-12-27T16:57:49.788Z,100513.97
2022-12-27T17:02:01.872Z,100509.84
2022-12-27T17:06:43.137Z,100513.38
2022-12-27T17:11:03.953Z,100507.56
2022-12-27T17:15:13.595Z,100509.38
2022-12-27T17:19:20.244Z,100511.78
2022-12-27T17:23:24.425Z,100511.78
2022-12-27T17:27:44.311Z,100494.09
2022-12-27T17:31:56.756Z,100493.16
2022-12-27T17:36:22.965Z,100499.66
2022-12-27T17:40:34.470Z,100503.06
2022-12-27T17:44:51.127Z,100496.38
2022-12-27T17:48:54.736Z,100505.19
2022-12-27T17:53:35.638Z,100504.88
2022-12-27T17:57:56.351Z,100512.91
2022-12-27T18:02:05.803Z,100499.97
2022-12-27T18:06:08.779Z,100504.56
2022-12-27T18:10:21.258Z,100494.16
2022-12-27T18:14:24.425Z,100490.22
2022-12-27T18:18:34.079Z,100496.03
2022-12-27T18:22:36.802Z,100499.22
2022-12-27T18:26:42.057Z,100492.53
2022-12-27T18:30:48.186Z,100489.22
2022-12-27T18:34:57.799Z,100483.50
2022-12-27T18:39:03.185Z,100478.59
2022-12-27T18:43:06.106Z,100480.44
2022-12-27T18:47:18.273Z,100485.66
2022-12-27T18:51:27.684Z,100479.59
2022-12-27T18:55:32.142Z,100470.03
2022-12-27T18:59:36.053Z,100491.09
2022-12-27T19:03:40.974Z,100473.13
2022-12-27T19:07:45.454Z,100458.25
2022-12-27T19:11:53.070Z,100444.84
2022-12-27T19:15:56.914Z,100443.94
2022-12-27T19:20:03.754Z,100444.56
2022-12-27T19:24:32.993Z,100447.66
2022-12-27T19:28:36.692Z,100440.41
2022-12-27T19:32:41.358Z,100426.84
2022-12-27T19:36:45.903Z,100419.53
2022-12-27T19:40:53.556Z,100411.78
2022-12-27T19:44:59.736Z,100408.03
2022-12-27T19:53:31.670Z,100407.19
2022-12-27T19:57:35.821Z,100400.84
2022-12-27T20:01:38.579Z,100406.19
2022-12-27T20:06:13.762Z,100397.19
2022-12-27T20:10:04.875Z,100403.53
2022-12-27T20:14:13.131Z,100392.59
2022-12-27T20:18:16.596Z,100397.47
2022-12-27T20:22:19.365Z,100393.81
2022-12-27T20:26:26.688Z,100390.28
2022-12-27T20:30:31.115Z,100378.44
2022-12-27T20:34:34.036Z,100376.28
2022-12-27T20:38:38.594Z,100382.72
2022-12-27T20:42:41.339Z,100381.41
2022-12-27T20:46:46.956Z,100378.50
2022-12-27T20:50:49.585Z,100381.19
2022-12-27T20:54:52.314Z,100392.28
2022-12-27T20:58:54.924Z,100394.72
2022-12-27T21:03:00.116Z,100401.97
2022-12-27T21:07:03.025Z,100400.38
2022-12-27T21:11:07.741Z,100386.63
2022-12-27T21:15:11.718Z,100381.41
2022-12-27T21:19:16.234Z,100380.41
2022-12-27T21:23:19.233Z,100378.03
2022-12-27T21:27:22.116Z,100373.31
2022-12-27T21:31:25.458Z,100367.03
2022-12-27T21:35:29.457Z,100359.25
2022-12-27T21:39:33.558Z,100357.16
2022-12-27T21:43:36.444Z,100366.22
2022-12-27T21:47:39.259Z,100360.38
2022-12-27T21:51:44.684Z,100347.91
2022-12-27T21:55:47.886Z,100355.66
2022-12-27T21:59:50.713Z,100350.91
